Time;durP1;ratioP1;P1;durP2;ratioP2;P2;SDS_P1;SDS_P2;PMS_P1;PMS_P2;Temp;Humidity;BMP_temperature;BMP_pressure;BME280_temperature;BME280_humidity;BME280_pressure;Samples;Min_cycle;Max_cycle;Signal;HPM_P1;HPM_P2
2024/01/20 00:01:44;;;;;;;18.63;9.65;;;-0.70;99.90;;;;;;5047032;28;20311;-83
2024/01/20 00:04:10;;;;;;;15.27;8.57;;;-0.80;99.90;;;;;;5039919;28;20212;-83
2024/01/20 00:06:37;;;;;;;22.25;11.60;;;-0.80;99.90;;;;;;5047520;28;20267;-83
2024/01/20 00:09:07;;;;;;;18.48;8.77;;;-0.70;99.90;;;;;;5042860;28;20226;-82
2024/01/20 00:11:34;;;;;;;13.55;9.02;;;-0.80;99.90;;;;;;5054747;28;20239;-83
2024/01/20 00:14:02;;;;;;;13.77;8.02;;;-0.70;99.90;;;;;;5043848;28;20227;-83
2024/01/20 00:16:29;;;;;;;21.17;10.02;;;-0.70;99.90;;;;;;5053766;28;20234;-82
2024/01/20 00:18:56;;;;;;;17.30;8.75;;;-0.80;99.90;;;;;;5058790;28;20199;-83
2024/01/20 00:21:24;;;;;;;17.92;9.15;;;-0.80;99.90;;;;;;5048602;28;20320;-83
2024/01/20 00:23:50;;;;;;;17.83;8.43;;;-0.80;99.90;;;;;;5050897;28;20280;-82
2024/01/20 00:26:19;;;;;;;14.35;8.27;;;-0.80;99.90;;;;;;5061952;28;20271;-82
2024/01/20 00:28:45;;;;;;;15.73;9.57;;;-0.80;99.90;;;;;;5060985;28;20209;-82
2024/01/20 00:31:11;;;;;;;15.15;8.25;;;-0.80;99.90;;;;;;5049304;28;20630;-82
2024/01/20 00:33:38;;;;;;;11.00;7.80;;;-0.90;99.90;;;;;;5050955;28;20212;-82
2024/01/20 00:36:05;;;;;;;14.63;7.45;;;-0.80;99.90;;;;;;5052240;28;20339;-82
2024/01/20 00:38:33;;;;;;;13.73;7.80;;;-0.80;99.90;;;;;;5051100;28;20307;-82
2024/01/20 00:41:00;;;;;;;17.03;7.17;;;-0.80;99.90;;;;;;5042134;28;20220;-82
2024/01/20 00:43:28;;;;;;;16.48;9.10;;;-0.80;99.90;;;;;;5057791;28;20546;-82
2024/01/20 00:45:54;;;;;;;14.65;8.50;;;-0.80;99.90;;;;;;5058073;28;20239;-83
2024/01/20 00:48:21;;;;;;;13.70;8.10;;;-0.90;99.90;;;;;;5052766;28;20574;-81
2024/01/20 00:50:48;;;;;;;17.40;8.98;;;-0.90;99.90;;;;;;5050031;28;20208;-80
2024/01/20 00:53:15;;;;;;;12.95;7.60;;;-1.00;99.90;;;;;;5058312;28;20750;-82
2024/01/20 00:55:42;;;;;;;17.75;8.40;;;-1.00;99.90;;;;;;5057483;28;20212;-82
2024/01/20 00:58:08;;;;;;;14.48;8.38;;;-1.00;99.90;;;;;;5047239;28;20209;-81
2024/01/20 01:00:37;;;;;;;16.63;9.45;;;-1.00;99.90;;;;;;5042480;28;20216;-83
2024/01/20 01:03:05;;;;;;;14.63;8.60;;;-1.00;99.90;;;;;;5039511;28;20231;-82
2024/01/20 01:05:31;;;;;;;14.73;7.65;;;-1.00;99.90;;;;;;5050861;28;20281;-82
2024/01/20 01:07:58;;;;;;;15.48;9.48;;;-1.10;99.90;;;;;;5036731;28;20208;-82
2024/01/20 01:10:25;;;;;;;14.95;9.10;;;-1.10;99.90;;;;;;5055413;28;20691;-82
2024/01/20 01:12:52;;;;;;;15.13;7.93;;;-1.10;99.90;;;;;;5057368;28;20232;-82
2024/01/20 01:15:22;;;;;;;15.50;8.82;;;-1.10;99.90;;;;;;5050684;28;20215;-81
2024/01/20 01:17:50;;;;;;;19.42;8.15;;;-1.10;99.90;;;;;;5054832;28;20274;-81
2024/01/20 01:20:17;;;;;;;16.60;8.85;;;-1.10;99.90;;;;;;5048864;28;20289;-82
2024/01/20 01:22:44;;;;;;;15.68;8.68;;;-1.10;99.90;;;;;;5056372;28;20321;-84
2024/01/20 01:25:11;;;;;;;20.65;9.55;;;-1.20;99.90;;;;;;5045054;28;20303;-81
2024/01/20 01:27:37;;;;;;;18.83;8.75;;;-1.20;99.90;;;;;;5041619;28;20328;-81
2024/01/20 01:30:06;;;;;;;19.10;9.00;;;-1.10;99.90;;;;;;5043861;28;20215;-82
2024/01/20 01:32:32;;;;;;;17.13;9.25;;;-1.20;99.90;;;;;;5043215;28;20213;-81
2024/01/20 01:35:01;;;;;;;19.55;9.50;;;-1.20;99.90;;;;;;5043661;28;20215;-82
2024/01/20 01:37:28;;;;;;;17.25;9.90;;;-1.20;99.90;;;;;;5046059;28;20231;-82
2024/01/20 01:39:54;;;;;;;15.93;8.48;;;-1.10;99.90;;;;;;5049441;28;20214;-84
2024/01/20 01:42:21;;;;;;;18.15;9.35;;;-1.20;99.90;;;;;;5049786;28;20335;-83
2024/01/20 01:44:48;;;;;;;15.38;9.77;;;-1.20;99.90;;;;;;5035888;28;20208;-81
2024/01/20 01:47:18;;;;;;;16.73;10.00;;;-1.30;99.90;;;;;;5052017;28;20310;-84
2024/01/20 01:49:45;;;;;;;16.58;9.52;;;-1.30;99.90;;;;;;5056534;28;20295;-84
2024/01/20 01:52:15;;;;;;;15.57;9.80;;;-1.30;99.90;;;;;;5040294;28;20291;-83
2024/01/20 01:54:42;;;;;;;16.85;8.38;;;-1.30;99.90;;;;;;5059210;28;20284;-83
2024/01/20 01:57:11;;;;;;;14.95;9.25;;;-1.30;99.90;;;;;;5045857;28;20249;-84
2024/01/20 01:59:38;;;;;;;21.38;10.00;;;-1.30;99.90;;;;;;5051567;28;20641;-84
2024/01/20 02:02:05;;;;;;;16.30;9.48;;;-1.30;99.90;;;;;;5061475;28;20263;-84
2024/01/20 02:04:32;;;;;;;16.33;10.57;;;-1.30;99.90;;;;;;5051180;28;20244;-84
2024/01/20 02:06:58;;;;;;;13.68;8.82;;;-1.30;99.90;;;;;;5049387;28;20225;-83
2024/01/20 02:09:27;;;;;;;16.45;9.95;;;-1.30;99.90;;;;;;5056619;28;20235;-83
2024/01/20 02:11:54;;;;;;;20.02;9.05;;;-1.30;99.90;;;;;;5052650;28;20259;-83
2024/01/20 02:14:21;;;;;;;18.67;10.25;;;-1.30;99.90;;;;;;5046191;28;20242;-84
2024/01/20 02:16:48;;;;;;;16.67;9.38;;;-1.30;99.90;;;;;;5054035;28;20250;-82
2024/01/20 02:19:15;;;;;;;19.02;9.40;;;-1.40;99.90;;;;;;5060975;28;20275;-84
2024/01/20 02:21:42;;;;;;;17.15;9.40;;;-1.50;99.90;;;;;;5053011;28;20243;-84
2024/01/20 02:24:12;;;;;;;16.63;8.68;;;-1.50;99.90;;;;;;5052009;28;20587;-84
2024/01/20 02:26:38;;;;;;;15.10;8.48;;;-1.50;99.90;;;;;;5053120;28;20713;-83
2024/01/20 02:29:07;;;;;;;17.60;10.35;;;-1.50;99.90;;;;;;5060328;28;20208;-83
2024/01/20 02:31:34;;;;;;;19.52;9.05;;;-1.50;99.90;;;;;;5061376;28;20293;-83
2024/01/20 02:34:01;;;;;;;18.20;9.75;;;-1.50;99.90;;;;;;5065829;28;20295;-84
2024/01/20 02:36:27;;;;;;;15.68;9.00;;;-1.50;99.90;;;;;;5063072;28;20231;-82
2024/01/20 02:38:54;;;;;;;15.02;8.60;;;-1.50;99.90;;;;;;5067312;28;20236;-84
2024/01/20 02:41:22;;;;;;;16.95;9.25;;;-1.50;99.90;;;;;;5045040;28;20244;-84
2024/01/20 02:43:49;;;;;;;14.10;8.55;;;-1.50;99.90;;;;;;5054692;28;20216;-83
2024/01/20 02:46:16;;;;;;;19.65;9.80;;;-1.50;99.90;;;;;;5045949;28;20232;-83
2024/01/20 02:48:43;;;;;;;17.08;9.70;;;-1.50;99.90;;;;;;5049291;28;20214;-83
2024/01/20 02:51:10;;;;;;;16.30;9.57;;;-1.50;99.90;;;;;;5057190;28;20238;-84
2024/01/20 02:53:36;;;;;;;17.63;9.25;;;-1.50;99.90;;;;;;5041289;28;20571;-83
2024/01/20 02:56:03;;;;;;;17.30;8.65;;;-1.50;99.90;;;;;;5056197;28;20242;-83
2024/01/20 02:58:31;;;;;;;14.43;9.70;;;-1.60;99.90;;;;;;5059016;28;20247;-84
2024/01/20 03:01:00;;;;;;;13.52;8.70;;;-1.60;99.90;;;;;;5058494;28;20202;-83
2024/01/20 03:03:27;;;;;;;18.45;9.32;;;-1.60;99.90;;;;;;5054896;28;20253;-84
2024/01/20 03:05:54;;;;;;;14.80;8.90;;;-1.70;99.90;;;;;;5050460;28;20230;-84
2024/01/20 03:08:21;;;;;;;14.90;9.13;;;-1.60;99.90;;;;;;5058507;28;20667;-83
2024/01/20 03:10:48;;;;;;;18.73;11.00;;;-1.60;99.90;;;;;;5050727;28;20208;-83
2024/01/20 03:13:14;;;;;;;19.10;9.50;;;-1.70;99.90;;;;;;5042728;28;20293;-84
2024/01/20 03:15:43;;;;;;;13.98;8.10;;;-1.70;99.90;;;;;;5057493;28;20218;-83
2024/01/20 03:18:10;;;;;;;15.80;9.48;;;-1.70;99.90;;;;;;5057553;28;20281;-83
2024/01/20 03:20:37;;;;;;;16.70;10.93;;;-1.60;99.90;;;;;;5058001;28;20303;-82
2024/01/20 03:23:04;;;;;;;25.83;10.45;;;-1.60;99.90;;;;;;5057635;28;20222;-83
2024/01/20 03:25:31;;;;;;;15.90;8.35;;;-1.60;99.90;;;;;;5051346;28;20225;-81
2024/01/20 03:27:58;;;;;;;13.77;8.93;;;-1.60;99.90;;;;;;5045933;28;20217;-82
2024/01/20 03:30:25;;;;;;;18.98;8.52;;;-1.60;99.90;;;;;;5051689;28;20257;-82
2024/01/20 03:32:53;;;;;;;15.85;9.45;;;-1.60;99.90;;;;;;5047213;28;20207;-83
2024/01/20 03:35:22;;;;;;;17.45;9.57;;;-1.60;99.90;;;;;;5042974;28;20212;-83
2024/01/20 03:37:49;;;;;;;21.70;10.00;;;-1.60;99.90;;;;;;5050290;28;20331;-83
2024/01/20 03:40:16;;;;;;;14.52;9.13;;;-1.80;99.90;;;;;;5059081;28;20684;-82
2024/01/20 03:42:42;;;;;;;17.05;10.18;;;-1.70;99.90;;;;;;5042430;28;20710;-83
2024/01/20 03:45:10;;;;;;;18.23;8.30;;;-1.70;99.90;;;;;;5046009;28;20219;-82
2024/01/20 03:47:36;;;;;;;14.57;7.72;;;-1.70;99.90;;;;;;5050215;28;20233;-84
2024/01/20 03:50:06;;;;;;;11.65;7.72;;;-1.70;99.90;;;;;;5050510;28;20588;-82
2024/01/20 03:52:33;;;;;;;15.63;9.38;;;-1.80;99.90;;;;;;5047881;28;20668;-84
2024/01/20 03:55:00;;;;;;;17.08;8.88;;;-1.80;99.90;;;;;;5057142;28;20295;-83
2024/01/20 03:57:28;;;;;;;17.42;9.13;;;-1.80;99.90;;;;;;5060457;28;20245;-83
2024/01/20 03:59:55;;;;;;;17.63;10.10;;;-1.90;99.90;;;;;;5054372;28;20696;-83
2024/01/20 04:02:22;;;;;;;23.83;10.15;;;-1.90;99.90;;;;;;5051550;28;20322;-84
2024/01/20 04:04:48;;;;;;;19.35;9.75;;;-1.90;99.90;;;;;;5047664;28;20212;-82
2024/01/20 04:07:16;;;;;;;16.63;9.35;;;-2.00;99.90;;;;;;5051795;28;20339;-86
2024/01/20 04:09:43;;;;;;;14.80;7.43;;;-2.00;99.90;;;;;;5051412;28;20307;-84
2024/01/20 04:12:10;;;;;;;16.67;10.18;;;-2.00;99.90;;;;;;5043924;28;20212;-85
2024/01/20 04:14:40;;;;;;;16.27;9.02;;;-1.90;99.90;;;;;;5052296;28;20647;-83
2024/01/20 04:17:06;;;;;;;13.52;8.65;;;-1.90;99.90;;;;;;5058511;28;20315;-84
2024/01/20 04:19:33;;;;;;;19.85;7.95;;;-1.90;99.90;;;;;;5051262;28;20216;-85
2024/01/20 04:22:00;;;;;;;22.00;10.10;;;-1.90;99.90;;;;;;5052341;28;20239;-82
2024/01/20 04:24:29;;;;;;;17.98;9.90;;;-1.90;99.90;;;;;;5039786;28;20246;-82
2024/01/20 04:26:55;;;;;;;20.40;9.80;;;-1.90;99.90;;;;;;5052133;28;20322;-82
2024/01/20 04:29:22;;;;;;;15.40;10.05;;;-1.90;99.90;;;;;;5054858;28;20206;-82
2024/01/20 04:31:49;;;;;;;21.95;10.43;;;-1.80;99.90;;;;;;5039255;28;20216;-83
2024/01/20 04:34:17;;;;;;;19.55;10.75;;;-1.80;99.90;;;;;;5044014;28;20203;-83
2024/01/20 04:36:44;;;;;;;15.77;9.73;;;-1.80;99.90;;;;;;5050993;28;20322;-83
2024/01/20 04:39:11;;;;;;;17.95;10.63;;;-1.70;99.90;;;;;;5044445;28;20565;-81
2024/01/20 04:41:39;;;;;;;16.25;10.35;;;-1.80;99.90;;;;;;5051090;28;20231;-83
2024/01/20 04:44:06;;;;;;;28.25;11.60;;;-1.90;99.90;;;;;;5047382;28;20581;-82
2024/01/20 04:46:33;;;;;;;15.90;10.88;;;-1.80;99.90;;;;;;5056059;28;20318;-82
2024/01/20 04:49:00;;;;;;;16.40;10.70;;;-1.80;99.90;;;;;;5055753;28;20722;-81
2024/01/20 04:51:27;;;;;;;20.98;10.90;;;-1.70;99.90;;;;;;5045799;28;20291;-82
2024/01/20 04:53:54;;;;;;;17.30;10.23;;;-1.60;99.90;;;;;;5037077;28;20216;-83
2024/01/20 04:56:22;;;;;;;16.13;9.63;;;-1.50;99.90;;;;;;5056229;28;20300;-83
2024/01/20 04:58:51;;;;;;;16.38;9.70;;;-1.50;99.90;;;;;;5050989;28;20269;-83
2024/01/20 05:01:18;;;;;;;18.48;11.32;;;-1.50;99.90;;;;;;5056964;28;20242;-83
2024/01/20 05:03:45;;;;;;;17.70;10.70;;;-1.50;99.90;;;;;;5053726;28;20228;-83
2024/01/20 05:06:12;;;;;;;18.33;10.10;;;-1.60;99.90;;;;;;5042403;28;20272;-82
2024/01/20 05:08:39;;;;;;;22.52;9.93;;;-1.60;99.90;;;;;;5047314;28;20314;-83
2024/01/20 05:11:06;;;;;;;19.05;11.15;;;-1.60;99.90;;;;;;5053779;28;20665;-83
2024/01/20 05:13:33;;;;;;;18.63;10.20;;;-1.70;99.90;;;;;;5036799;28;20414;-83
2024/01/20 05:16:01;;;;;;;19.00;11.18;;;-1.90;99.90;;;;;;5050009;28;20226;-84
2024/01/20 05:18:28;;;;;;;18.90;10.27;;;-1.90;99.90;;;;;;5035976;28;20305;-82
2024/01/20 05:20:55;;;;;;;17.00;10.95;;;-1.90;99.90;;;;;;5045280;28;20206;-83
2024/01/20 05:23:21;;;;;;;19.50;10.25;;;-2.00;99.90;;;;;;5051694;28;20227;-83
2024/01/20 05:25:48;;;;;;;18.23;11.80;;;-2.00;99.90;;;;;;5067172;28;20264;-84
2024/01/20 05:28:15;;;;;;;18.73;9.50;;;-2.00;99.90;;;;;;5073722;28;20219;-82
2024/01/20 05:30:43;;;;;;;16.73;10.40;;;-1.90;99.90;;;;;;5064044;28;20228;-84
2024/01/20 05:33:11;;;;;;;18.63;10.20;;;-1.90;99.90;;;;;;5071842;28;20198;-83
2024/01/20 05:35:39;;;;;;;13.85;7.65;;;-1.90;99.90;;;;;;5068831;28;20234;-85
2024/01/20 05:38:05;;;;;;;20.80;10.18;;;-2.10;99.90;;;;;;5060846;28;20203;-84
2024/01/20 05:40:32;;;;;;;20.23;9.90;;;-2.20;99.90;;;;;;5049323;28;20203;-85
2024/01/20 05:42:59;;;;;;;16.33;9.50;;;-2.10;99.90;;;;;;5048544;28;20319;-82
2024/01/20 05:45:26;;;;;;;13.25;7.57;;;-2.10;99.90;;;;;;5054816;28;20296;-84
2024/01/20 05:47:52;;;;;;;15.75;8.90;;;-2.10;99.90;;;;;;5044189;28;20297;-83
2024/01/20 05:50:21;;;;;;;14.57;7.53;;;-2.10;99.90;;;;;;5041130;28;20278;-84
2024/01/20 05:52:47;;;;;;;17.13;8.60;;;-2.20;99.90;;;;;;5050781;28;20285;-82
2024/01/20 05:55:14;;;;;;;22.25;9.70;;;-2.20;99.90;;;;;;5050716;28;20208;-85
2024/01/20 05:57:43;;;;;;;13.52;8.00;;;-2.30;99.90;;;;;;5042970;28;20276;-84
2024/01/20 06:00:11;;;;;;;19.60;10.85;;;-2.30;99.90;;;;;;5045414;28;20234;-84
2024/01/20 06:02:38;;;;;;;17.60;9.98;;;-2.30;99.90;;;;;;5036857;28;20221;-85
2024/01/20 06:05:05;;;;;;;14.98;8.00;;;-2.30;99.90;;;;;;5047707;28;20580;-84
2024/01/20 06:07:33;;;;;;;15.52;8.75;;;-2.30;99.90;;;;;;5051758;28;20294;-84
2024/01/20 06:10:00;;;;;;;14.90;8.75;;;-2.30;99.90;;;;;;5049415;28;20238;-84
2024/01/20 06:12:27;;;;;;;16.10;8.77;;;-2.30;99.90;;;;;;5059464;28;20272;-84
2024/01/20 06:14:54;;;;;;;14.18;9.70;;;-2.40;99.90;;;;;;5058184;28;20751;-85
2024/01/20 06:17:21;;;;;;;16.58;10.27;;;-2.40;99.90;;;;;;5055018;28;20233;-85
2024/01/20 06:19:48;;;;;;;12.77;7.65;;;-2.40;99.90;;;;;;5054951;28;20202;-86
2024/01/20 06:22:15;;;;;;;14.60;8.20;;;-2.40;99.90;;;;;;5046880;28;20215;-84
2024/01/20 06:24:43;;;;;;;16.50;7.88;;;-2.40;99.90;;;;;;5069568;28;20290;-84
2024/01/20 06:27:09;;;;;;;13.90;8.23;;;-2.40;99.90;;;;;;5079838;28;20833;-86
2024/01/20 06:29:40;;;;;;;13.20;8.77;;;-2.40;99.90;;;;;;5079462;28;20231;-85
2024/01/20 06:32:07;;;;;;;17.17;10.18;;;-2.40;99.90;;;;;;5078929;28;20219;-88
2024/01/20 06:34:34;;;;;;;13.43;8.82;;;-2.40;99.90;;;;;;5071935;28;20219;-88
2024/01/20 06:37:01;;;;;;;17.90;8.98;;;-2.40;99.90;;;;;;5080606;28;20248;-87
2024/01/20 06:39:28;;;;;;;14.65;8.35;;;-2.40;99.90;;;;;;5081107;28;20207;-86
2024/01/20 06:41:56;;;;;;;19.02;10.18;;;-2.50;99.90;;;;;;5080812;28;20236;-85
2024/01/20 06:44:23;;;;;;;15.88;8.77;;;-2.50;99.90;;;;;;5079692;28;20226;-86
2024/01/20 06:46:50;;;;;;;15.43;8.40;;;-2.40;99.90;;;;;;5079451;28;20225;-85
2024/01/20 06:49:17;;;;;;;14.60;9.10;;;-2.40;99.90;;;;;;5070772;28;20184;-82
2024/01/20 06:51:45;;;;;;;16.30;10.30;;;-2.40;99.90;;;;;;5056300;28;20216;-83
2024/01/20 06:54:12;;;;;;;17.33;9.95;;;-2.50;99.90;;;;;;5047669;28;20209;-82
2024/01/20 06:56:39;;;;;;;17.55;8.25;;;-2.50;99.90;;;;;;5054650;28;20686;-82
2024/01/20 06:59:07;;;;;;;13.10;8.63;;;-2.40;99.90;;;;;;5059016;28;20199;-82
2024/01/20 07:01:34;;;;;;;13.80;8.20;;;-2.40;99.90;;;;;;5059496;28;20584;-83
2024/01/20 07:04:01;;;;;;;14.45;9.13;;;-2.40;99.90;;;;;;5041892;28;20237;-83
2024/01/20 07:06:27;;;;;;;16.10;8.27;;;-2.40;99.90;;;;;;5053674;28;20240;-82
2024/01/20 07:08:54;;;;;;;21.08;8.38;;;-2.40;99.90;;;;;;5052546;28;20220;-83
2024/01/20 07:11:21;;;;;;;14.82;8.60;;;-2.40;99.90;;;;;;5056066;28;20211;-86
2024/01/20 07:13:48;;;;;;;15.57;8.10;;;-2.40;99.90;;;;;;5045531;28;20219;-83
2024/01/20 07:16:19;;;;;;;19.63;9.05;;;-2.40;99.90;;;;;;5055629;28;20979;-82
2024/01/20 07:18:46;;;;;;;13.10;7.60;;;-2.50;99.90;;;;;;5054838;28;20249;-80
2024/01/20 07:21:13;;;;;;;15.25;8.27;;;-2.50;99.90;;;;;;5059176;28;20239;-83
2024/01/20 07:23:43;;;;;;;13.25;8.68;;;-2.40;99.90;;;;;;5063332;28;20247;-83
2024/01/20 07:26:10;;;;;;;16.10;7.47;;;-2.50;99.90;;;;;;5056073;28;20307;-83
2024/01/20 07:28:36;;;;;;;16.73;8.50;;;-2.50;99.90;;;;;;5062697;28;20248;-84
2024/01/20 07:31:04;;;;;;;13.73;7.32;;;-2.50;99.90;;;;;;5061450;28;20632;-83
2024/01/20 07:33:33;;;;;;;13.02;6.72;;;-2.50;99.90;;;;;;5062567;28;20215;-82
2024/01/20 07:36:00;;;;;;;16.27;8.57;;;-2.60;99.90;;;;;;5062750;28;20297;-83
2024/01/20 07:38:27;;;;;;;14.43;7.75;;;-2.60;99.90;;;;;;5063476;28;20675;-83
2024/01/20 07:40:54;;;;;;;15.45;7.57;;;-2.60;99.90;;;;;;5064245;28;20285;-83
2024/01/20 07:43:22;;;;;;;9.63;6.50;;;-2.60;99.90;;;;;;5073662;28;20253;-83
2024/01/20 07:45:53;;;;;;;15.20;9.20;;;-2.60;99.90;;;;;;5060711;28;20293;-84
2024/01/20 07:48:20;;;;;;;18.40;9.13;;;-2.70;99.90;;;;;;5054726;28;20206;-83
2024/01/20 07:50:49;;;;;;;16.48;10.13;;;-2.70;99.90;;;;;;5064175;28;20231;-83
2024/01/20 07:53:16;;;;;;;14.20;8.57;;;-2.70;99.90;;;;;;5050604;28;20203;-83
2024/01/20 07:55:43;;;;;;;13.20;8.70;;;-2.70;99.90;;;;;;5057246;28;20209;-85
2024/01/20 07:58:09;;;;;;;13.82;7.88;;;-2.60;99.90;;;;;;5049978;28;20629;-83
2024/01/20 08:00:36;;;;;;;15.82;9.07;;;-2.60;99.90;;;;;;5053673;28;20295;-81
2024/01/20 08:03:03;;;;;;;16.65;8.52;;;-2.60;99.90;;;;;;5060007;28;20274;-84
2024/01/20 08:05:31;;;;;;;16.73;9.07;;;-2.60;99.90;;;;;;5063652;28;20685;-83
2024/01/20 08:08:00;;;;;;;19.52;9.45;;;-2.60;99.90;;;;;;5059807;28;20293;-84
2024/01/20 08:10:26;;;;;;;16.70;9.13;;;-2.50;99.90;;;;;;5062322;28;20271;-83
2024/01/20 08:12:53;;;;;;;16.17;9.55;;;-2.40;99.90;;;;;;5062597;28;20285;-85
2024/01/20 08:15:22;;;;;;;19.35;9.43;;;-2.40;99.90;;;;;;5058852;28;20213;-82
2024/01/20 08:17:50;;;;;;;15.20;8.60;;;-2.30;99.90;;;;;;5044302;28;20222;-83
2024/01/20 08:20:17;;;;;;;16.38;7.80;;;-2.20;99.90;;;;;;5063468;28;20238;-83
2024/01/20 08:22:43;;;;;;;14.63;8.00;;;-2.20;99.90;;;;;;5067136;28;20221;-88
2024/01/20 08:25:13;;;;;;;16.10;9.90;;;-2.10;99.90;;;;;;5061537;28;20238;-87
2024/01/20 08:28:00;;;;;;;13.38;7.38;;;-2.00;99.90;;;;;;5072504;28;20220;-84
2024/01/20 08:30:27;;;;;;;12.70;7.60;;;-2.00;99.90;;;;;;5073569;28;20216;-90
2024/01/20 08:32:54;;;;;;;14.80;8.70;;;-1.90;99.90;;;;;;5068001;28;20234;-89
2024/01/20 08:35:21;;;;;;;13.90;7.63;;;-1.80;99.90;;;;;;5064743;28;20206;-82
2024/01/20 08:37:48;;;;;;;13.25;7.72;;;-1.70;99.90;;;;;;5057369;28;20233;-81
2024/01/20 08:40:16;;;;;;;11.63;7.10;;;-1.70;99.90;;;;;;5058440;28;20647;-83
2024/01/20 08:42:43;;;;;;;15.43;8.10;;;-1.60;99.90;;;;;;5052575;28;20260;-80
2024/01/20 08:45:10;;;;;;;12.27;8.55;;;-1.60;99.90;;;;;;5060374;28;20236;-81
2024/01/20 08:47:37;;;;;;;16.02;9.27;;;-1.50;99.90;;;;;;5056402;28;20267;-81
2024/01/20 08:50:05;;;;;;;15.23;7.53;;;-1.50;99.90;;;;;;5062433;28;20289;-81
2024/01/20 08:52:33;;;;;;;14.02;6.65;;;-1.50;99.90;;;;;;5047007;28;20234;-83
2024/01/20 08:55:00;;;;;;;13.00;7.32;;;-1.50;99.90;;;;;;5062512;28;20208;-84
2024/01/20 08:57:29;;;;;;;13.00;6.95;;;-1.40;99.90;;;;;;5056888;28;20310;-83
2024/01/20 08:59:56;;;;;;;13.50;7.40;;;-1.40;99.90;;;;;;5064857;28;20211;-83
2024/01/20 09:02:23;;;;;;;12.02;6.80;;;-1.30;99.90;;;;;;5052357;28;20302;-84
2024/01/20 09:04:50;;;;;;;12.60;6.00;;;-1.30;99.90;;;;;;5052632;28;20295;-83
2024/01/20 09:07:16;;;;;;;11.05;6.03;;;-1.30;99.90;;;;;;5063888;28;20760;-84
2024/01/20 09:09:43;;;;;;;10.93;6.30;;;-1.20;99.90;;;;;;5062940;28;20233;-85
2024/01/20 09:12:10;;;;;;;12.75;6.82;;;-1.20;99.90;;;;;;5066353;28;20201;-83
2024/01/20 09:14:38;;;;;;;12.35;6.00;;;-1.10;99.90;;;;;;5066435;28;20295;-82
2024/01/20 09:17:05;;;;;;;9.95;5.43;;;-1.00;99.90;;;;;;5057976;28;20250;-82
2024/01/20 09:19:32;;;;;;;10.27;5.63;;;-1.00;99.90;;;;;;5067067;28;20211;-83
2024/01/20 09:21:59;;;;;;;10.65;5.85;;;-0.90;99.90;;;;;;5057068;28;20236;-84
2024/01/20 09:24:25;;;;;;;11.45;6.18;;;-0.80;99.90;;;;;;5064709;28;20295;-84
2024/01/20 09:26:52;;;;;;;11.82;6.05;;;-0.80;99.90;;;;;;5053781;28;20312;-83
2024/01/20 09:29:19;;;;;;;11.13;5.75;;;-0.70;99.90;;;;;;5062123;28;20232;-82
2024/01/20 09:31:47;;;;;;;10.02;5.60;;;-0.60;99.90;;;;;;5062060;28;20226;-84
2024/01/20 09:34:14;;;;;;;9.90;6.10;;;-0.50;99.90;;;;;;5065053;28;20195;-82
2024/01/20 09:36:41;;;;;;;12.85;5.60;;;-0.40;99.90;;;;;;5055161;28;20450;-81
2024/01/20 09:39:11;;;;;;;9.68;6.47;;;-0.30;99.90;;;;;;5063616;28;20215;-81
2024/01/20 09:41:37;;;;;;;12.52;5.93;;;-0.10;99.90;;;;;;5062933;28;20283;-81
2024/01/20 09:44:07;;;;;;;12.90;6.18;;;-0.10;99.90;;;;;;5057531;28;20680;-85
2024/01/20 09:46:34;;;;;;;8.20;5.13;;;0.00;99.90;;;;;;5053850;28;20320;-82
2024/01/20 09:49:02;;;;;;;8.70;5.43;;;0.00;99.90;;;;;;5058408;28;20269;-83
2024/01/20 09:51:29;;;;;;;7.20;4.70;;;0.10;99.90;;;;;;5054670;28;20498;-83
2024/01/20 09:53:59;;;;;;;9.90;5.93;;;0.10;99.90;;;;;;5047690;28;20451;-82
2024/01/20 09:56:26;;;;;;;10.48;5.25;;;0.20;99.90;;;;;;5054198;28;20247;-82
2024/01/20 09:58:56;;;;;;;7.60;4.80;;;0.30;99.90;;;;;;5060624;28;20209;-82
2024/01/20 10:01:23;;;;;;;9.03;5.20;;;0.40;99.90;;;;;;5058751;28;20511;-81
2024/01/20 10:03:51;;;;;;;6.67;4.27;;;0.60;99.90;;;;;;5063633;28;20463;-80
2024/01/20 10:06:19;;;;;;;6.30;4.77;;;0.90;99.90;;;;;;5057707;28;20897;-82
2024/01/20 10:08:46;;;;;;;8.37;4.60;;;1.20;99.90;;;;;;5060695;28;20547;-83
2024/01/20 10:11:13;;;;;;;15.53;8.20;;;1.50;99.90;;;;;;5056924;28;20451;-81
2024/01/20 10:13:40;;;;;;;9.43;5.10;;;1.70;99.90;;;;;;5063438;28;20813;-81
2024/01/20 10:16:08;;;;;;;11.47;4.93;;;1.70;99.90;;;;;;5066466;28;20841;-84
2024/01/20 10:18:35;;;;;;;8.07;4.90;;;2.10;99.90;;;;;;5066548;28;20458;-79
2024/01/20 10:21:03;;;;;;;6.50;4.33;;;2.00;99.90;;;;;;5059157;28;20448;-81
2024/01/20 10:23:31;;;;;;;8.90;5.13;;;2.10;99.90;;;;;;5060461;28;20451;-83
2024/01/20 10:26:02;;;;;;;7.00;3.93;;;2.20;99.90;;;;;;5054107;28;20491;-83
2024/01/20 10:28:29;;;;;;;8.03;4.67;;;2.20;99.90;;;;;;5047700;28;20456;-81
2024/01/20 10:30:56;;;;;;;10.17;4.80;;;2.00;99.90;;;;;;5056197;28;20538;-83
2024/01/20 10:33:23;;;;;;;6.93;4.43;;;2.30;99.90;;;;;;5052195;28;20461;-80
2024/01/20 10:35:51;;;;;;;8.47;4.40;;;2.40;99.90;;;;;;5054009;28;20452;-82
2024/01/20 10:38:20;;;;;;;6.93;4.77;;;2.40;99.90;;;;;;5064478;28;20459;-82
2024/01/20 10:40:52;;;;;;;6.67;5.00;;;2.40;99.90;;;;;;5051832;28;20449;-80
2024/01/20 10:43:20;;;;;;;7.57;4.80;;;2.40;99.90;;;;;;5043488;28;20532;-81
2024/01/20 10:45:52;;;;;;;8.00;4.60;;;2.50;99.90;;;;;;5051385;28;20466;-83
2024/01/20 10:48:22;;;;;;;8.87;5.37;;;2.60;99.90;;;;;;5051449;28;20995;-82
2024/01/20 10:50:54;;;;;;;7.00;4.23;;;2.50;99.90;;;;;;5053253;28;20444;-82
2024/01/20 10:53:21;;;;;;;9.80;5.10;;;2.80;99.90;;;;;;5053692;28;20452;-81
2024/01/20 10:55:50;;;;;;;9.00;5.67;;;3.00;99.90;;;;;;5055652;28;20527;-80
2024/01/20 10:58:20;;;;;;;7.70;3.97;;;3.20;99.90;;;;;;5043706;28;20550;-82
2024/01/20 11:00:48;;;;;;;6.60;3.97;;;3.40;99.90;;;;;;5070327;28;20456;-79
2024/01/20 11:03:16;;;;;;;6.30;3.60;;;3.40;99.90;;;;;;5072809;28;20444;-81
2024/01/20 11:05:48;;;;;;;6.20;4.10;;;3.60;99.90;;;;;;5072926;28;20548;-82
2024/01/20 11:08:23;;;;;;;6.87;4.00;;;3.90;99.90;;;;;;5059113;28;20466;-80
2024/01/20 11:10:53;;;;;;;8.10;4.73;;;4.10;99.90;;;;;;5072574;28;20485;-83
2024/01/20 11:13:24;;;;;;;7.83;4.70;;;4.30;99.90;;;;;;5076921;28;20444;-80
2024/01/20 11:15:51;;;;;;;6.67;3.93;;;4.30;99.90;;;;;;5056093;28;20550;-80
2024/01/20 11:18:19;;;;;;;7.10;3.83;;;4.40;99.90;;;;;;5048890;28;20930;-80
2024/01/20 11:21:00;;;;;;;6.33;3.90;;;4.50;99.90;;;;;;5049345;28;20454;-80
2024/01/20 11:23:27;;;;;;;6.63;3.93;;;4.20;99.90;;;;;;5052257;28;20521;-81
2024/01/20 11:25:56;;;;;;;6.00;4.10;;;4.00;99.90;;;;;;5054613;28;20501;-80
2024/01/20 11:28:24;;;;;;;7.00;4.20;;;4.20;99.90;;;;;;5046418;28;20982;-80
2024/01/20 11:30:51;;;;;;;3.80;2.83;;;4.70;99.90;;;;;;5039596;28;20957;-80
2024/01/20 11:33:18;;;;;;;6.63;3.83;;;5.10;99.90;;;;;;5058153;28;20525;-82
2024/01/20 11:35:45;;;;;;;8.23;3.90;;;6.00;99.90;;;;;;5042567;28;20459;-81
2024/01/20 11:38:14;;;;;;;5.20;3.03;;;7.60;99.90;;;;;;5038303;28;20462;-79
2024/01/20 11:40:44;;;;;;;7.03;3.13;;;9.40;99.90;;;;;;5054155;28;20525;-81
2024/01/20 11:43:12;;;;;;;7.10;3.50;;;11.00;94.60;;;;;;5056609;28;20938;-79
2024/01/20 11:45:39;;;;;;;4.93;3.40;;;12.80;89.40;;;;;;5041352;28;20570;-79
2024/01/20 11:48:07;;;;;;;7.50;4.40;;;11.80;85.00;;;;;;5053988;28;20456;-81
2024/01/20 11:50:34;;;;;;;6.10;3.97;;;12.90;81.20;;;;;;5049583;28;20461;-78
2024/01/20 11:53:01;;;;;;;6.50;3.60;;;13.60;76.70;;;;;;5053007;28;20450;-80
2024/01/20 11:55:28;;;;;;;5.77;3.90;;;14.10;73.10;;;;;;5052016;28;20920;-81
2024/01/20 11:57:55;;;;;;;6.87;3.97;;;13.20;71.40;;;;;;5053291;28;20488;-80
2024/01/20 12:00:24;;;;;;;7.03;3.73;;;12.50;71.20;;;;;;5050049;28;20449;-80
2024/01/20 12:02:55;;;;;;;5.07;3.90;;;11.00;71.90;;;;;;5055376;28;20521;-79
2024/01/20 12:05:22;;;;;;;8.23;3.60;;;10.80;74.60;;;;;;5051393;28;20480;-83
2024/01/20 12:07:49;;;;;;;4.70;3.87;;;10.80;75.40;;;;;;5051780;28;21076;-84
2024/01/20 12:10:17;;;;;;;4.67;3.07;;;11.60;75.80;;;;;;5051693;28;20563;-79
2024/01/20 12:12:44;;;;;;;4.70;3.77;;;13.60;74.50;;;;;;5035666;28;20480;-81
2024/01/20 12:15:11;;;;;;;5.57;3.33;;;15.20;71.30;;;;;;5047181;28;20534;-82
2024/01/20 12:17:40;;;;;;;4.27;3.00;;;16.30;67.30;;;;;;5055194;28;20470;-81
2024/01/20 12:20:08;;;;;;;5.30;3.80;;;17.70;64.00;;;;;;5055071;28;20543;-83
2024/01/20 12:22:37;;;;;;;4.67;3.70;;;18.40;60.30;;;;;;5049913;28;20463;-84
2024/01/20 12:25:04;;;;;;;5.03;3.77;;;18.30;56.80;;;;;;5050968;28;20484;-81
2024/01/20 12:27:31;;;;;;;3.90;3.50;;;17.30;57.20;;;;;;5062528;28;20526;-81
2024/01/20 12:29:58;;;;;;;6.70;4.20;;;16.00;56.60;;;;;;5064341;28;20467;-81
2024/01/20 12:32:25;;;;;;;5.97;3.80;;;14.60;56.80;;;;;;5059677;28;20939;-81
2024/01/20 12:34:53;;;;;;;4.80;3.80;;;15.10;58.50;;;;;;5057311;28;20485;-84
2024/01/20 12:37:20;;;;;;;5.10;3.40;;;14.10;58.50;;;;;;5063163;28;20493;-82
2024/01/20 12:39:47;;;;;;;5.27;3.57;;;12.80;58.20;;;;;;5064834;28;20446;-80